sensor_id;sensor_type;location;lat;lon;timestamp;P1;durP1;ratioP1;P2;durP2;ratioP2
61840;SDS011;47773;53.174;6.614;2023-11-19T00:02:18;33.17;;;12.18;;
61840;SDS011;47773;53.174;6.614;2023-11-19T00:04:44;29.65;;;12.82;;
61840;SDS011;47773;53.174;6.614;2023-11-19T00:07:10;33.70;;;12.85;;
61840;SDS011;47773;53.174;6.614;2023-11-19T00:09:38;34.70;;;13.32;;
61840;SDS011;47773;53.174;6.614;2023-11-19T00:12:04;31.83;;;12.30;;
61840;SDS011;47773;53.174;6.614;2023-11-19T00:14:31;48.58;;;13.35;;
61840;SDS011;47773;53.174;6.614;2023-11-19T00:16:56;39.13;;;13.75;;
61840;SDS011;47773;53.174;6.614;2023-11-19T00:19:22;37.08;;;12.85;;
61840;SDS011;47773;53.174;6.614;2023-11-19T00:21:48;34.10;;;11.93;;
61840;SDS011;47773;53.174;6.614;2023-11-19T00:24:13;36.50;;;12.20;;
61840;SDS011;47773;53.174;6.614;2023-11-19T00:26:41;38.65;;;11.10;;
61840;SDS011;47773;53.174;6.614;2023-11-19T00:29:08;33.60;;;10.25;;
61840;SDS011;47773;53.174;6.614;2023-11-19T00:31:33;36.20;;;10.07;;
61840;SDS011;47773;53.174;6.614;2023-11-19T00:34:00;38.78;;;9.85;;
61840;SDS011;47773;53.174;6.614;2023-11-19T00:36:26;37.08;;;8.98;;
61840;SDS011;47773;53.174;6.614;2023-11-19T00:38:53;35.80;;;9.63;;
61840;SDS011;47773;53.174;6.614;2023-11-19T00:41:19;35.33;;;8.90;;
61840;SDS011;47773;53.174;6.614;2023-11-19T00:43:45;31.85;;;8.45;;
61840;SDS011;47773;53.174;6.614;2023-11-19T00:46:11;33.45;;;8.02;;
61840;SDS011;47773;53.174;6.614;2023-11-19T00:48:37;41.28;;;8.05;;
61840;SDS011;47773;53.174;6.614;2023-11-19T00:51:03;39.88;;;8.55;;
61840;SDS011;47773;53.174;6.614;2023-11-19T00:53:32;36.97;;;7.70;;
61840;SDS011;47773;53.174;6.614;2023-11-19T00:55:59;39.85;;;7.82;;
61840;SDS011;47773;53.174;6.614;2023-11-19T00:58:25;37.60;;;6.30;;
61840;SDS011;47773;53.174;6.614;2023-11-19T01:00:50;34.53;;;6.88;;
61840;SDS011;47773;53.174;6.614;2023-11-19T01:03:16;43.13;;;7.35;;
61840;SDS011;47773;53.174;6.614;2023-11-19T01:05:42;39.75;;;6.18;;
61840;SDS011;47773;53.174;6.614;2023-11-19T01:08:08;28.10;;;5.38;;
61840;SDS011;47773;53.174;6.614;2023-11-19T01:10:36;29.90;;;4.90;;
61840;SDS011;47773;53.174;6.614;2023-11-19T01:13:02;33.28;;;5.05;;
61840;SDS011;47773;53.174;6.614;2023-11-19T01:15:32;38.22;;;5.20;;
61840;SDS011;47773;53.174;6.614;2023-11-19T01:17:58;42.78;;;5.30;;
61840;SDS011;47773;53.174;6.614;2023-11-19T01:20:23;31.67;;;4.80;;
61840;SDS011;47773;53.174;6.614;2023-11-19T01:22:49;30.88;;;4.68;;
61840;SDS011;47773;53.174;6.614;2023-11-19T01:25:15;32.67;;;4.05;;
61840;SDS011;47773;53.174;6.614;2023-11-19T01:27:41;31.35;;;5.20;;
61840;SDS011;47773;53.174;6.614;2023-11-19T01:30:07;39.15;;;5.03;;
61840;SDS011;47773;53.174;6.614;2023-11-19T01:32:35;34.13;;;4.10;;
61840;SDS011;47773;53.174;6.614;2023-11-19T01:35:02;31.00;;;3.88;;
61840;SDS011;47773;53.174;6.614;2023-11-19T01:37:29;40.92;;;4.47;;
61840;SDS011;47773;53.174;6.614;2023-11-19T01:39:56;29.65;;;3.80;;
61840;SDS011;47773;53.174;6.614;2023-11-19T01:42:22;31.25;;;4.53;;
61840;SDS011;47773;53.174;6.614;2023-11-19T01:45:00;35.67;;;4.97;;
61840;SDS011;47773;53.174;6.614;2023-11-19T01:47:30;29.30;;;4.05;;
61840;SDS011;47773;53.174;6.614;2023-11-19T01:49:56;28.00;;;4.40;;
61840;SDS011;47773;53.174;6.614;2023-11-19T01:52:22;29.00;;;3.72;;
61840;SDS011;47773;53.174;6.614;2023-11-19T01:54:50;39.28;;;5.07;;
61840;SDS011;47773;53.174;6.614;2023-11-19T01:57:18;36.72;;;4.03;;
61840;SDS011;47773;53.174;6.614;2023-11-19T01:59:44;31.75;;;4.13;;
61840;SDS011;47773;53.174;6.614;2023-11-19T02:02:10;27.85;;;3.70;;
61840;SDS011;47773;53.174;6.614;2023-11-19T02:04:37;30.30;;;4.20;;
61840;SDS011;47773;53.174;6.614;2023-11-19T02:07:03;34.03;;;4.78;;
61840;SDS011;47773;53.174;6.614;2023-11-19T02:09:29;33.70;;;4.35;;
61840;SDS011;47773;53.174;6.614;2023-11-19T02:11:55;32.92;;;3.88;;
61840;SDS011;47773;53.174;6.614;2023-11-19T02:14:25;36.33;;;4.32;;
61840;SDS011;47773;53.174;6.614;2023-11-19T02:16:52;34.53;;;3.75;;
61840;SDS011;47773;53.174;6.614;2023-11-19T02:19:20;31.30;;;4.00;;
61840;SDS011;47773;53.174;6.614;2023-11-19T02:21:46;40.15;;;6.03;;
61840;SDS011;47773;53.174;6.614;2023-11-19T02:24:12;30.80;;;4.60;;
61840;SDS011;47773;53.174;6.614;2023-11-19T02:26:47;37.63;;;4.75;;
61840;SDS011;47773;53.174;6.614;2023-11-19T02:29:15;26.58;;;3.92;;
61840;SDS011;47773;53.174;6.614;2023-11-19T02:31:41;37.67;;;3.85;;
61840;SDS011;47773;53.174;6.614;2023-11-19T02:34:06;32.22;;;4.13;;
61840;SDS011;47773;53.174;6.614;2023-11-19T02:36:32;35.40;;;3.42;;
61840;SDS011;47773;53.174;6.614;2023-11-19T02:38:58;27.30;;;4.10;;
61840;SDS011;47773;53.174;6.614;2023-11-19T02:41:24;36.85;;;4.55;;
61840;SDS011;47773;53.174;6.614;2023-11-19T02:43:50;36.13;;;4.47;;
61840;SDS011;47773;53.174;6.614;2023-11-19T02:46:16;30.63;;;4.30;;
61840;SDS011;47773;53.174;6.614;2023-11-19T02:48:42;44.70;;;4.57;;
61840;SDS011;47773;53.174;6.614;2023-11-19T02:51:09;35.75;;;4.25;;
61840;SDS011;47773;53.174;6.614;2023-11-19T02:53:35;38.42;;;4.03;;
61840;SDS011;47773;53.174;6.614;2023-11-19T02:56:04;33.75;;;3.88;;
61840;SDS011;47773;53.174;6.614;2023-11-19T02:58:37;45.30;;;4.32;;
61840;SDS011;47773;53.174;6.614;2023-11-19T03:01:04;32.85;;;5.10;;
61840;SDS011;47773;53.174;6.614;2023-11-19T03:03:38;32.45;;;4.05;;
61840;SDS011;47773;53.174;6.614;2023-11-19T03:06:05;42.72;;;4.13;;
61840;SDS011;47773;53.174;6.614;2023-11-19T03:08:32;29.00;;;4.03;;
61840;SDS011;47773;53.174;6.614;2023-11-19T03:11:00;29.52;;;4.30;;
61840;SDS011;47773;53.174;6.614;2023-11-19T03:13:25;30.65;;;4.20;;
61840;SDS011;47773;53.174;6.614;2023-11-19T03:15:52;34.38;;;4.28;;
61840;SDS011;47773;53.174;6.614;2023-11-19T03:18:19;37.17;;;4.60;;
61840;SDS011;47773;53.174;6.614;2023-11-19T03:20:46;27.27;;;3.65;;
61840;SDS011;47773;53.174;6.614;2023-11-19T03:23:11;34.22;;;4.85;;
61840;SDS011;47773;53.174;6.614;2023-11-19T03:25:37;47.53;;;6.10;;
61840;SDS011;47773;53.174;6.614;2023-11-19T03:28:03;33.50;;;4.18;;
61840;SDS011;47773;53.174;6.614;2023-11-19T03:30:29;40.33;;;5.43;;
61840;SDS011;47773;53.174;6.614;2023-11-19T03:32:56;35.72;;;4.47;;
61840;SDS011;47773;53.174;6.614;2023-11-19T03:35:22;30.00;;;4.43;;
61840;SDS011;47773;53.174;6.614;2023-11-19T03:37:49;31.38;;;3.97;;
61840;SDS011;47773;53.174;6.614;2023-11-19T03:40:17;33.20;;;4.22;;
61840;SDS011;47773;53.174;6.614;2023-11-19T03:42:46;30.80;;;4.20;;
61840;SDS011;47773;53.174;6.614;2023-11-19T03:45:14;38.13;;;3.95;;
61840;SDS011;47773;53.174;6.614;2023-11-19T03:47:40;33.60;;;4.45;;
61840;SDS011;47773;53.174;6.614;2023-11-19T03:50:06;30.55;;;3.65;;
61840;SDS011;47773;53.174;6.614;2023-11-19T03:52:33;29.70;;;4.40;;
61840;SDS011;47773;53.174;6.614;2023-11-19T03:55:00;33.47;;;4.13;;
61840;SDS011;47773;53.174;6.614;2023-11-19T03:57:27;32.90;;;4.28;;
61840;SDS011;47773;53.174;6.614;2023-11-19T03:59:53;37.20;;;4.55;;
61840;SDS011;47773;53.174;6.614;2023-11-19T04:02:18;33.58;;;4.38;;
61840;SDS011;47773;53.174;6.614;2023-11-19T04:04:44;36.17;;;4.15;;
61840;SDS011;47773;53.174;6.614;2023-11-19T04:07:10;36.95;;;3.97;;
61840;SDS011;47773;53.174;6.614;2023-11-19T04:09:35;35.80;;;4.43;;
61840;SDS011;47773;53.174;6.614;2023-11-19T04:12:02;40.20;;;4.07;;
61840;SDS011;47773;53.174;6.614;2023-11-19T04:14:28;36.30;;;4.40;;
61840;SDS011;47773;53.174;6.614;2023-11-19T04:16:54;36.58;;;4.82;;
61840;SDS011;47773;53.174;6.614;2023-11-19T04:19:20;30.40;;;3.90;;
61840;SDS011;47773;53.174;6.614;2023-11-19T04:21:47;37.47;;;4.07;;
61840;SDS011;47773;53.174;6.614;2023-11-19T04:24:13;35.00;;;3.85;;
61840;SDS011;47773;53.174;6.614;2023-11-19T04:26:42;33.20;;;4.40;;
61840;SDS011;47773;53.174;6.614;2023-11-19T04:29:11;35.10;;;4.63;;
61840;SDS011;47773;53.174;6.614;2023-11-19T04:31:38;30.15;;;4.10;;
61840;SDS011;47773;53.174;6.614;2023-11-19T04:34:04;39.33;;;4.43;;
61840;SDS011;47773;53.174;6.614;2023-11-19T04:36:31;33.65;;;4.90;;
61840;SDS011;47773;53.174;6.614;2023-11-19T04:38:58;31.67;;;3.85;;
61840;SDS011;47773;53.174;6.614;2023-11-19T04:41:25;34.05;;;4.80;;
61840;SDS011;47773;53.174;6.614;2023-11-19T04:43:52;29.90;;;4.32;;
61840;SDS011;47773;53.174;6.614;2023-11-19T04:46:19;45.67;;;4.90;;
61840;SDS011;47773;53.174;6.614;2023-11-19T04:48:45;36.45;;;4.90;;
61840;SDS011;47773;53.174;6.614;2023-11-19T04:51:10;43.85;;;4.40;;
61840;SDS011;47773;53.174;6.614;2023-11-19T04:53:36;30.40;;;4.25;;
61840;SDS011;47773;53.174;6.614;2023-11-19T04:56:07;48.70;;;4.40;;
61840;SDS011;47773;53.174;6.614;2023-11-19T04:58:34;34.95;;;4.55;;
61840;SDS011;47773;53.174;6.614;2023-11-19T05:01:01;31.83;;;4.13;;
61840;SDS011;47773;53.174;6.614;2023-11-19T05:03:26;47.70;;;5.82;;
61840;SDS011;47773;53.174;6.614;2023-11-19T05:05:52;35.17;;;5.25;;
61840;SDS011;47773;53.174;6.614;2023-11-19T05:08:18;45.05;;;4.60;;
61840;SDS011;47773;53.174;6.614;2023-11-19T05:10:44;35.67;;;4.30;;
61840;SDS011;47773;53.174;6.614;2023-11-19T05:13:10;30.77;;;4.47;;
61840;SDS011;47773;53.174;6.614;2023-11-19T05:15:35;39.33;;;4.90;;
61840;SDS011;47773;53.174;6.614;2023-11-19T05:18:01;51.63;;;5.25;;
61840;SDS011;47773;53.174;6.614;2023-11-19T05:20:27;44.65;;;5.07;;
61840;SDS011;47773;53.174;6.614;2023-11-19T05:22:52;39.05;;;5.25;;
61840;SDS011;47773;53.174;6.614;2023-11-19T05:25:18;33.88;;;5.10;;
61840;SDS011;47773;53.174;6.614;2023-11-19T05:27:45;38.58;;;4.63;;
61840;SDS011;47773;53.174;6.614;2023-11-19T05:30:11;35.63;;;4.85;;
61840;SDS011;47773;53.174;6.614;2023-11-19T05:32:37;41.67;;;5.22;;
61840;SDS011;47773;53.174;6.614;2023-11-19T05:35:02;36.13;;;5.00;;
61840;SDS011;47773;53.174;6.614;2023-11-19T05:37:28;45.08;;;5.30;;
61840;SDS011;47773;53.174;6.614;2023-11-19T05:39:54;36.50;;;4.72;;
61840;SDS011;47773;53.174;6.614;2023-11-19T05:42:19;42.92;;;4.57;;
61840;SDS011;47773;53.174;6.614;2023-11-19T05:44:45;42.25;;;5.07;;
61840;SDS011;47773;53.174;6.614;2023-11-19T05:47:11;40.50;;;5.05;;
61840;SDS011;47773;53.174;6.614;2023-11-19T05:49:37;41.00;;;5.22;;
61840;SDS011;47773;53.174;6.614;2023-11-19T05:52:03;40.15;;;5.47;;
61840;SDS011;47773;53.174;6.614;2023-11-19T05:54:28;41.42;;;5.10;;
61840;SDS011;47773;53.174;6.614;2023-11-19T05:56:54;39.15;;;5.60;;
61840;SDS011;47773;53.174;6.614;2023-11-19T05:59:20;42.33;;;4.95;;
61840;SDS011;47773;53.174;6.614;2023-11-19T06:01:47;40.65;;;4.82;;
61840;SDS011;47773;53.174;6.614;2023-11-19T06:04:13;41.10;;;4.78;;
61840;SDS011;47773;53.174;6.614;2023-11-19T06:06:39;34.03;;;4.43;;
61840;SDS011;47773;53.174;6.614;2023-11-19T06:09:05;40.35;;;5.07;;
61840;SDS011;47773;53.174;6.614;2023-11-19T06:11:32;36.55;;;5.03;;
61840;SDS011;47773;53.174;6.614;2023-11-19T06:14:01;47.53;;;5.97;;
61840;SDS011;47773;53.174;6.614;2023-11-19T06:16:30;39.60;;;5.15;;
61840;SDS011;47773;53.174;6.614;2023-11-19T06:18:56;44.50;;;6.18;;
61840;SDS011;47773;53.174;6.614;2023-11-19T06:21:22;44.10;;;4.88;;
61840;SDS011;47773;53.174;6.614;2023-11-19T06:23:48;34.67;;;4.90;;
61840;SDS011;47773;53.174;6.614;2023-11-19T06:26:14;37.35;;;4.57;;
61840;SDS011;47773;53.174;6.614;2023-11-19T06:28:39;37.17;;;4.28;;
61840;SDS011;47773;53.174;6.614;2023-11-19T06:31:05;38.33;;;5.03;;
61840;SDS011;47773;53.174;6.614;2023-11-19T06:33:31;34.30;;;5.55;;
61840;SDS011;47773;53.174;6.614;2023-11-19T06:35:56;49.83;;;6.30;;
61840;SDS011;47773;53.174;6.614;2023-11-19T06:38:22;48.63;;;5.18;;
61840;SDS011;47773;53.174;6.614;2023-11-19T06:40:48;42.70;;;5.25;;
61840;SDS011;47773;53.174;6.614;2023-11-19T06:43:14;34.33;;;4.35;;
61840;SDS011;47773;53.174;6.614;2023-11-19T06:45:40;44.45;;;5.75;;
61840;SDS011;47773;53.174;6.614;2023-11-19T06:48:06;43.50;;;5.20;;
61840;SDS011;47773;53.174;6.614;2023-11-19T06:50:32;42.33;;;6.35;;
61840;SDS011;47773;53.174;6.614;2023-11-19T06:52:58;40.75;;;5.43;;
61840;SDS011;47773;53.174;6.614;2023-11-19T06:55:24;36.72;;;4.88;;
61840;SDS011;47773;53.174;6.614;2023-11-19T06:57:51;41.63;;;4.97;;
61840;SDS011;47773;53.174;6.614;2023-11-19T07:00:16;36.85;;;4.60;;
61840;SDS011;47773;53.174;6.614;2023-11-19T07:02:43;40.50;;;5.25;;
61840;SDS011;47773;53.174;6.614;2023-11-19T07:05:09;41.22;;;4.72;;
61840;SDS011;47773;53.174;6.614;2023-11-19T07:07:37;40.60;;;4.93;;
61840;SDS011;47773;53.174;6.614;2023-11-19T07:10:02;31.10;;;4.55;;
61840;SDS011;47773;53.174;6.614;2023-11-19T07:12:29;36.50;;;4.40;;
61840;SDS011;47773;53.174;6.614;2023-11-19T07:14:55;40.83;;;6.00;;
61840;SDS011;47773;53.174;6.614;2023-11-19T07:17:21;42.70;;;5.80;;
61840;SDS011;47773;53.174;6.614;2023-11-19T07:19:49;40.58;;;4.82;;
61840;SDS011;47773;53.174;6.614;2023-11-19T07:22:15;39.17;;;4.93;;
61840;SDS011;47773;53.174;6.614;2023-11-19T07:24:41;40.17;;;4.97;;
61840;SDS011;47773;53.174;6.614;2023-11-19T07:27:07;38.05;;;5.95;;
61840;SDS011;47773;53.174;6.614;2023-11-19T07:29:34;38.35;;;5.00;;
61840;SDS011;47773;53.174;6.614;2023-11-19T07:32:00;39.92;;;4.93;;
61840;SDS011;47773;53.174;6.614;2023-11-19T07:34:27;34.38;;;5.20;;
61840;SDS011;47773;53.174;6.614;2023-11-19T07:36:54;45.15;;;5.35;;
61840;SDS011;47773;53.174;6.614;2023-11-19T07:39:22;40.25;;;4.13;;
61840;SDS011;47773;53.174;6.614;2023-11-19T07:41:48;39.45;;;6.15;;
61840;SDS011;47773;53.174;6.614;2023-11-19T07:44:14;38.97;;;5.95;;
61840;SDS011;47773;53.174;6.614;2023-11-19T07:46:40;32.55;;;4.57;;
61840;SDS011;47773;53.174;6.614;2023-11-19T07:49:07;33.67;;;5.35;;
61840;SDS011;47773;53.174;6.614;2023-11-19T07:51:34;43.28;;;4.75;;
61840;SDS011;47773;53.174;6.614;2023-11-19T07:54:00;43.30;;;5.30;;
61840;SDS011;47773;53.174;6.614;2023-11-19T07:56:26;33.67;;;4.32;;
61840;SDS011;47773;53.174;6.614;2023-11-19T07:58:52;38.08;;;4.60;;
61840;SDS011;47773;53.174;6.614;2023-11-19T08:01:17;35.47;;;4.53;;
61840;SDS011;47773;53.174;6.614;2023-11-19T08:03:44;32.35;;;4.28;;
61840;SDS011;47773;53.174;6.614;2023-11-19T08:06:09;34.45;;;3.90;;
61840;SDS011;47773;53.174;6.614;2023-11-19T08:08:35;44.42;;;4.93;;
61840;SDS011;47773;53.174;6.614;2023-11-19T08:11:03;40.13;;;4.90;;
61840;SDS011;47773;53.174;6.614;2023-11-19T08:13:30;33.85;;;4.78;;
61840;SDS011;47773;53.174;6.614;2023-11-19T08:15:56;45.15;;;5.55;;
61840;SDS011;47773;53.174;6.614;2023-11-19T08:18:23;36.83;;;4.60;;
61840;SDS011;47773;53.174;6.614;2023-11-19T08:20:49;35.70;;;4.35;;
61840;SDS011;47773;53.174;6.614;2023-11-19T08:23:18;37.08;;;3.95;;
61840;SDS011;47773;53.174;6.614;2023-11-19T08:25:44;31.00;;;4.68;;
61840;SDS011;47773;53.174;6.614;2023-11-19T08:28:10;46.13;;;5.57;;
61840;SDS011;47773;53.174;6.614;2023-11-19T08:30:36;41.30;;;4.80;;
61840;SDS011;47773;53.174;6.614;2023-11-19T08:33:01;42.80;;;5.18;;
61840;SDS011;47773;53.174;6.614;2023-11-19T08:35:31;36.03;;;4.78;;
61840;SDS011;47773;53.174;6.614;2023-11-19T08:37:57;40.10;;;4.63;;
61840;SDS011;47773;53.174;6.614;2023-11-19T08:40:24;40.80;;;5.00;;
61840;SDS011;47773;53.174;6.614;2023-11-19T08:42:51;36.58;;;5.05;;
61840;SDS011;47773;53.174;6.614;2023-11-19T08:45:16;34.88;;;4.60;;
61840;SDS011;47773;53.174;6.614;2023-11-19T08:47:42;30.77;;;4.22;;
61840;SDS011;47773;53.174;6.614;2023-11-19T08:50:10;36.90;;;4.95;;
61840;SDS011;47773;53.174;6.614;2023-11-19T08:52:37;32.28;;;4.50;;
61840;SDS011;47773;53.174;6.614;2023-11-19T08:55:02;28.35;;;4.25;;
61840;SDS011;47773;53.174;6.614;2023-11-19T08:57:30;38.65;;;4.78;;
61840;SDS011;47773;53.174;6.614;2023-11-19T08:59:56;33.58;;;3.53;;
61840;SDS011;47773;53.174;6.614;2023-11-19T09:02:22;42.47;;;4.75;;
61840;SDS011;47773;53.174;6.614;2023-11-19T09:04:47;31.63;;;4.75;;
61840;SDS011;47773;53.174;6.614;2023-11-19T09:07:13;39.63;;;5.03;;
61840;SDS011;47773;53.174;6.614;2023-11-19T09:09:38;42.97;;;5.13;;
61840;SDS011;47773;53.174;6.614;2023-11-19T09:12:05;42.10;;;5.20;;
61840;SDS011;47773;53.174;6.614;2023-11-19T09:14:31;40.92;;;5.43;;
61840;SDS011;47773;53.174;6.614;2023-11-19T09:16:57;40.45;;;4.55;;
61840;SDS011;47773;53.174;6.614;2023-11-19T09:19:23;40.38;;;4.22;;
61840;SDS011;47773;53.174;6.614;2023-11-19T09:21:49;37.58;;;4.25;;
61840;SDS011;47773;53.174;6.614;2023-11-19T09:24:15;37.78;;;5.15;;
61840;SDS011;47773;53.174;6.614;2023-11-19T09:26:41;35.05;;;4.85;;
61840;SDS011;47773;53.174;6.614;2023-11-19T09:29:10;31.55;;;4.50;;
61840;SDS011;47773;53.174;6.614;2023-11-19T09:31:37;37.80;;;4.40;;
61840;SDS011;47773;53.174;6.614;2023-11-19T09:34:03;32.53;;;3.97;;
61840;SDS011;47773;53.174;6.614;2023-11-19T09:36:29;39.60;;;4.93;;
61840;SDS011;47773;53.174;6.614;2023-11-19T09:38:54;31.70;;;4.60;;
61840;SDS011;47773;53.174;6.614;2023-11-19T09:41:20;37.00;;;4.47;;
61840;SDS011;47773;53.174;6.614;2023-11-19T09:43:46;42.78;;;6.07;;
61840;SDS011;47773;53.174;6.614;2023-11-19T09:46:13;46.97;;;5.28;;
61840;SDS011;47773;53.174;6.614;2023-11-19T09:48:40;36.17;;;5.40;;
61840;SDS011;47773;53.174;6.614;2023-11-19T09:51:07;36.97;;;4.90;;
61840;SDS011;47773;53.174;6.614;2023-11-19T09:53:34;29.92;;;4.03;;
61840;SDS011;47773;53.174;6.614;2023-11-19T09:56:02;35.72;;;4.45;;
61840;SDS011;47773;53.174;6.614;2023-11-19T09:58:29;29.17;;;3.90;;
61840;SDS011;47773;53.174;6.614;2023-11-19T10:00:56;33.13;;;5.18;;
61840;SDS011;47773;53.174;6.614;2023-11-19T10:03:30;36.40;;;4.97;;
61840;SDS011;47773;53.174;6.614;2023-11-19T10:05:58;30.52;;;3.53;;
61840;SDS011;47773;53.174;6.614;2023-11-19T10:08:26;44.58;;;5.30;;
61840;SDS011;47773;53.174;6.614;2023-11-19T10:10:51;37.65;;;4.45;;
61840;SDS011;47773;53.174;6.614;2023-11-19T10:13:17;38.38;;;4.75;;
61840;SDS011;47773;53.174;6.614;2023-11-19T10:15:43;30.45;;;4.70;;
61840;SDS011;47773;53.174;6.614;2023-11-19T10:18:09;34.95;;;4.72;;
61840;SDS011;47773;53.174;6.614;2023-11-19T10:20:35;38.20;;;4.63;;
61840;SDS011;47773;53.174;6.614;2023-11-19T10:23:02;43.28;;;5.53;;
61840;SDS011;47773;53.174;6.614;2023-11-19T10:25:28;31.98;;;5.28;;
61840;SDS011;47773;53.174;6.614;2023-11-19T10:27:54;38.55;;;4.70;;
61840;SDS011;47773;53.174;6.614;2023-11-19T10:30:25;34.35;;;4.40;;
61840;SDS011;47773;53.174;6.614;2023-11-19T10:35:37;37.50;;;4.85;;
61840;SDS011;47773;53.174;6.614;2023-11-19T10:38:20;28.25;;;4.53;;
61840;SDS011;47773;53.174;6.614;2023-11-19T10:40:47;36.33;;;3.95;;
61840;SDS011;47773;53.174;6.614;2023-11-19T10:43:13;44.30;;;4.50;;
61840;SDS011;47773;53.174;6.614;2023-11-19T10:45:39;36.20;;;4.82;;
61840;SDS011;47773;53.174;6.614;2023-11-19T10:48:06;33.30;;;4.32;;
61840;SDS011;47773;53.174;6.614;2023-11-19T10:50:35;36.50;;;4.65;;
61840;SDS011;47773;53.174;6.614;2023-11-19T10:53:02;32.22;;;4.82;;
61840;SDS011;47773;53.174;6.614;2023-11-19T10:55:30;35.75;;;4.97;;
61840;SDS011;47773;53.174;6.614;2023-11-19T10:58:00;39.25;;;4.85;;
61840;SDS011;47773;53.174;6.614;2023-11-19T11:00:30;26.45;;;3.58;;
61840;SDS011;47773;53.174;6.614;2023-11-19T11:03:02;32.72;;;5.50;;
61840;SDS011;47773;53.174;6.614;2023-11-19T11:05:35;34.92;;;5.75;;
61840;SDS011;47773;53.174;6.614;2023-11-19T11:08:03;34.55;;;4.00;;
61840;SDS011;47773;53.174;6.614;2023-11-19T11:10:31;39.95;;;4.60;;
61840;SDS011;47773;53.174;6.614;2023-11-19T11:13:02;33.97;;;3.85;;
61840;SDS011;47773;53.174;6.614;2023-11-19T11:15:29;40.95;;;5.65;;
61840;SDS011;47773;53.174;6.614;2023-11-19T11:17:57;32.47;;;4.22;;
61840;SDS011;47773;53.174;6.614;2023-11-19T11:20:32;43.35;;;5.63;;
61840;SDS011;47773;53.174;6.614;2023-11-19T11:25:42;31.08;;;4.13;;
61840;SDS011;47773;53.174;6.614;2023-11-19T11:37:22;28.35;;;4.35;;
61840;SDS011;47773;53.174;6.614;2023-11-19T11:39:57;33.10;;;4.10;;
61840;SDS011;47773;53.174;6.614;2023-11-19T11:55:37;28.55;;;4.80;;
61840;SDS011;47773;53.174;6.614;2023-11-19T11:58:18;31.50;;;3.83;;
61840;SDS011;47773;53.174;6.614;2023-11-19T12:00:51;41.67;;;4.80;;
61840;SDS011;47773;53.174;6.614;2023-11-19T12:03:18;37.35;;;4.28;;
61840;SDS011;47773;53.174;6.614;2023-11-19T12:05:47;32.22;;;4.88;;
61840;SDS011;47773;53.174;6.614;2023-11-19T12:08:14;30.67;;;4.15;;
61840;SDS011;47773;53.174;6.614;2023-11-19T12:13:15;32.50;;;4.05;;
61840;SDS011;47773;53.174;6.614;2023-11-19T12:18:28;28.48;;;3.33;;
61840;SDS011;47773;53.174;6.614;2023-11-19T12:20:55;39.28;;;4.13;;
61840;SDS011;47773;53.174;6.614;2023-11-19T12:23:24;26.15;;;3.80;;
61840;SDS011;47773;53.174;6.614;2023-11-19T12:25:51;28.58;;;3.90;;
61840;SDS011;47773;53.174;6.614;2023-11-19T12:28:17;28.95;;;3.85;;
61840;SDS011;47773;53.174;6.614;2023-11-19T12:30:43;34.70;;;4.20;;
61840;SDS011;47773;53.174;6.614;2023-11-19T12:33:10;26.52;;;3.88;;
61840;SDS011;47773;53.174;6.614;2023-11-19T12:35:39;28.83;;;4.32;;
61840;SDS011;47773;53.174;6.614;2023-11-19T12:38:05;34.13;;;4.10;;
61840;SDS011;47773;53.174;6.614;2023-11-19T12:40:31;38.13;;;4.60;;
61840;SDS011;47773;53.174;6.614;2023-11-19T12:42:57;38.20;;;4.50;;
61840;SDS011;47773;53.174;6.614;2023-11-19T12:45:24;43.28;;;4.70;;
61840;SDS011;47773;53.174;6.614;2023-11-19T12:47:50;30.55;;;4.30;;
61840;SDS011;47773;53.174;6.614;2023-11-19T12:50:29;26.55;;;4.10;;
61840;SDS011;47773;53.174;6.614;2023-11-19T12:52:55;24.33;;;4.00;;
61840;SDS011;47773;53.174;6.614;2023-11-19T12:55:28;31.92;;;4.00;;
61840;SDS011;47773;53.174;6.614;2023-11-19T12:57:55;24.98;;;3.35;;
61840;SDS011;47773;53.174;6.614;2023-11-19T13:00:22;19.42;;;3.70;;
61840;SDS011;47773;53.174;6.614;2023-11-19T13:02:50;24.67;;;3.33;;
61840;SDS011;47773;53.174;6.614;2023-11-19T13:05:26;31.58;;;4.03;;
61840;SDS011;47773;53.174;6.614;2023-11-19T13:10:28;33.00;;;3.67;;
61840;SDS011;47773;53.174;6.614;2023-11-19T13:13:04;26.02;;;3.33;;
61840;SDS011;47773;53.174;6.614;2023-11-19T13:15:34;36.50;;;4.03;;
61840;SDS011;47773;53.174;6.614;2023-11-19T13:18:00;28.17;;;3.53;;
61840;SDS011;47773;53.174;6.614;2023-11-19T13:20:27;27.90;;;3.13;;
61840;SDS011;47773;53.174;6.614;2023-11-19T13:22:56;24.23;;;3.40;;
61840;SDS011;47773;53.174;6.614;2023-11-19T13:25:23;33.10;;;3.40;;
61840;SDS011;47773;53.174;6.614;2023-11-19T13:27:49;32.72;;;3.88;;
61840;SDS011;47773;53.174;6.614;2023-11-19T13:30:15;29.88;;;3.42;;
61840;SDS011;47773;53.174;6.614;2023-11-19T13:32:41;29.15;;;3.30;;
61840;SDS011;47773;53.174;6.614;2023-11-19T13:35:08;31.92;;;3.92;;
61840;SDS011;47773;53.174;6.614;2023-11-19T13:37:34;29.33;;;3.00;;
61840;SDS011;47773;53.174;6.614;2023-11-19T13:40:00;31.05;;;3.92;;
61840;SDS011;47773;53.174;6.614;2023-11-19T13:42:26;31.42;;;3.65;;
61840;SDS011;47773;53.174;6.614;2023-11-19T13:44:52;31.77;;;3.83;;
61840;SDS011;47773;53.174;6.614;2023-11-19T13:47:18;33.25;;;3.80;;
61840;SDS011;47773;53.174;6.614;2023-11-19T13:49:46;27.05;;;3.42;;
61840;SDS011;47773;53.174;6.614;2023-11-19T13:52:12;44.95;;;4.47;;
61840;SDS011;47773;53.174;6.614;2023-11-19T13:54:38;22.77;;;2.88;;
61840;SDS011;47773;53.174;6.614;2023-11-19T13:57:03;33.80;;;3.92;;
61840;SDS011;47773;53.174;6.614;2023-11-19T13:59:30;27.65;;;4.00;;
61840;SDS011;47773;53.174;6.614;2023-11-19T14:01:57;26.17;;;3.58;;
61840;SDS011;47773;53.174;6.614;2023-11-19T14:04:23;27.13;;;3.85;;
61840;SDS011;47773;53.174;6.614;2023-11-19T14:06:49;31.63;;;4.28;;
61840;SDS011;47773;53.174;6.614;2023-11-19T14:09:14;26.17;;;3.55;;
61840;SDS011;47773;53.174;6.614;2023-11-19T14:11:40;24.20;;;3.40;;
61840;SDS011;47773;53.174;6.614;2023-11-19T14:14:07;26.40;;;3.33;;
61840;SDS011;47773;53.174;6.614;2023-11-19T14:16:33;37.22;;;5.15;;
61840;SDS011;47773;53.174;6.614;2023-11-19T14:18:59;26.02;;;3.20;;
61840;SDS011;47773;53.174;6.614;2023-11-19T14:21:25;23.30;;;3.28;;
61840;SDS011;47773;53.174;6.614;2023-11-19T14:23:51;27.77;;;3.90;;
61840;SDS011;47773;53.174;6.614;2023-11-19T14:26:18;26.30;;;3.80;;
61840;SDS011;47773;53.174;6.614;2023-11-19T14:28:44;31.80;;;3.80;;
61840;SDS011;47773;53.174;6.614;2023-11-19T14:31:09;26.00;;;3.75;;
61840;SDS011;47773;53.174;6.614;2023-11-19T14:33:35;28.77;;;3.72;;
61840;SDS011;47773;53.174;6.614;2023-11-19T14:36:03;32.63;;;4.30;;
61840;SDS011;47773;53.174;6.614;2023-11-19T14:38:29;23.75;;;3.05;;
61840;SDS011;47773;53.174;6.614;2023-11-19T14:40:55;28.50;;;4.35;;
61840;SDS011;47773;53.174;6.614;2023-11-19T14:43:20;25.77;;;3.65;;
61840;SDS011;47773;53.174;6.614;2023-11-19T14:45:46;27.33;;;3.28;;
61840;SDS011;47773;53.174;6.614;2023-11-19T14:48:12;31.10;;;4.70;;
61840;SDS011;47773;53.174;6.614;2023-11-19T14:50:37;26.08;;;3.00;;
61840;SDS011;47773;53.174;6.614;2023-11-19T14:53:03;35.55;;;4.22;;
61840;SDS011;47773;53.174;6.614;2023-11-19T14:55:29;26.73;;;3.17;;
61840;SDS011;47773;53.174;6.614;2023-11-19T14:57:54;31.65;;;3.97;;
61840;SDS011;47773;53.174;6.614;2023-11-19T15:00:21;28.15;;;3.72;;
61840;SDS011;47773;53.174;6.614;2023-11-19T15:02:47;38.47;;;4.75;;
61840;SDS011;47773;53.174;6.614;2023-11-19T15:05:13;26.33;;;2.50;;
61840;SDS011;47773;53.174;6.614;2023-11-19T15:07:39;25.20;;;3.75;;